Time;durP1;ratioP1;P1;durP2;ratioP2;P2;SDS_P1;SDS_P2;PMS_P1;PMS_P2;Temp;Humidity;BMP_temperature;BMP_pressure;BME280_temperature;BME280_humidity;BME280_pressure;Samples;Min_cycle;Max_cycle;Signal;HPM_P1;HPM_P2
2022/05/02 00:00:53;;;;;;;15.50;11.02;;;;;;;;;;5022835;28;20098;-60
2022/05/02 00:03:19;;;;;;;21.67;13.73;;;;;;;;;;5026335;28;20041;-60
2022/05/02 00:05:45;;;;;;;18.35;13.80;;;;;;;;;;5021002;28;20117;-60
2022/05/02 00:08:11;;;;;;;18.38;14.13;;;;;;;;;;5028597;28;20037;-60
2022/05/02 00:10:37;;;;;;;21.75;15.07;;;;;;;;;;5021917;28;20179;-60
2022/05/02 00:13:03;;;;;;;22.60;14.90;;;;;;;;;;5029012;28;20069;-60
2022/05/02 00:15:29;;;;;;;18.83;12.95;;;;;;;;;;5021895;28;20033;-60
2022/05/02 00:17:59;;;;;;;18.30;13.00;;;;;;;;;;5022199;28;20458;-60
2022/05/02 00:20:32;;;;;;;16.13;12.40;;;;;;;;;;5029150;28;20079;-60
2022/05/02 00:22:59;;;;;;;15.60;11.57;;;;;;;;;;5029520;28;20112;-60
2022/05/02 00:25:26;;;;;;;14.15;10.70;;;;;;;;;;5023017;28;20037;-60
2022/05/02 00:27:52;;;;;;;15.45;11.88;;;;;;;;;;5023946;28;20038;-60
2022/05/02 00:30:18;;;;;;;14.07;10.98;;;;;;;;;;5023095;28;20045;-60
2022/05/02 00:32:45;;;;;;;17.88;11.23;;;;;;;;;;5022504;28;20522;-60
2022/05/02 00:35:11;;;;;;;15.52;10.77;;;;;;;;;;5012559;28;20049;-60
2022/05/02 00:37:38;;;;;;;14.10;10.13;;;;;;;;;;5022690;28;20561;-60
2022/05/02 00:40:05;;;;;;;16.20;10.50;;;;;;;;;;5029262;28;20037;-60
2022/05/02 00:42:31;;;;;;;13.20;9.80;;;;;;;;;;5024637;28;20434;-60
2022/05/02 00:44:57;;;;;;;24.13;10.90;;;;;;;;;;5033199;28;20080;-60
2022/05/02 00:47:23;;;;;;;13.35;9.02;;;;;;;;;;5024915;28;20077;-60
2022/05/02 00:49:49;;;;;;;15.82;9.38;;;;;;;;;;5026150;28;20411;-60
2022/05/02 00:52:15;;;;;;;14.30;10.25;;;;;;;;;;5019832;28;20073;-60
2022/05/02 00:54:42;;;;;;;14.85;9.90;;;;;;;;;;5018292;28;20076;-60
2022/05/02 00:57:08;;;;;;;12.77;8.93;;;;;;;;;;5021298;28;20069;-60
2022/05/02 00:59:37;;;;;;;11.25;8.70;;;;;;;;;;5032449;28;20124;-60
2022/05/02 01:02:04;;;;;;;14.85;8.90;;;;;;;;;;5031554;28;20033;-60
2022/05/02 01:04:30;;;;;;;12.32;8.75;;;;;;;;;;5031135;28;20037;-60
2022/05/02 01:07:09;;;;;;;12.07;9.23;;;;;;;;;;5029891;28;20065;-60
2022/05/02 01:09:41;;;;;;;12.30;8.77;;;;;;;;;;5017085;28;20479;-60
2022/05/02 01:12:08;;;;;;;12.68;8.45;;;;;;;;;;5026776;28;20041;-60
2022/05/02 01:14:34;;;;;;;12.00;8.32;;;;;;;;;;5025259;28;20045;-60
2022/05/02 01:17:01;;;;;;;12.13;8.23;;;;;;;;;;5031930;28;20033;-60
2022/05/02 01:19:27;;;;;;;13.68;9.10;;;;;;;;;;5029585;28;20544;-60
2022/05/02 01:21:53;;;;;;;11.88;8.30;;;;;;;;;;5023763;28;20046;-60
2022/05/02 01:24:19;;;;;;;12.18;8.57;;;;;;;;;;5030204;28;20042;-60
2022/05/02 01:26:45;;;;;;;12.32;8.70;;;;;;;;;;5025680;28;20033;-60
2022/05/02 01:29:11;;;;;;;15.70;9.40;;;;;;;;;;5031915;28;20053;-60
2022/05/02 01:31:37;;;;;;;15.68;8.43;;;;;;;;;;5025960;28;20050;-60
2022/05/02 01:34:03;;;;;;;13.30;9.23;;;;;;;;;;5046231;22;20036;-58
2022/05/02 01:36:29;;;;;;;13.90;9.55;;;;;;;;;;5039901;28;20080;-58
2022/05/02 01:38:55;;;;;;;11.82;8.55;;;;;;;;;;5030492;28;20025;-58
2022/05/02 01:41:21;;;;;;;13.52;9.23;;;;;;;;;;5032110;28;20049;-58
2022/05/02 01:43:48;;;;;;;14.45;8.38;;;;;;;;;;5026055;28;20034;-58
2022/05/02 01:46:14;;;;;;;12.75;8.65;;;;;;;;;;5011258;28;20496;-58
2022/05/02 01:48:40;;;;;;;12.48;8.55;;;;;;;;;;5008309;28;20049;-58
2022/05/02 01:51:06;;;;;;;12.95;8.35;;;;;;;;;;5028042;28;20053;-58
2022/05/02 01:53:32;;;;;;;14.15;9.00;;;;;;;;;;5008903;28;20117;-58
2022/05/02 01:55:58;;;;;;;13.73;8.95;;;;;;;;;;5011351;28;20214;-58
2022/05/02 01:58:25;;;;;;;13.30;9.38;;;;;;;;;;5018962;28;20041;-58
2022/05/02 02:00:51;;;;;;;14.15;9.30;;;;;;;;;;5020403;28;20048;-58
2022/05/02 02:03:17;;;;;;;13.18;9.30;;;;;;;;;;5009200;28;20121;-58
2022/05/02 02:05:48;;;;;;;14.32;9.93;;;;;;;;;;4987883;28;20088;-57
2022/05/02 02:08:15;;;;;;;15.80;10.07;;;;;;;;;;5012938;28;20034;-58
2022/05/02 02:10:41;;;;;;;14.85;10.75;;;;;;;;;;5023729;28;20041;-58
2022/05/02 02:13:07;;;;;;;16.95;9.82;;;;;;;;;;5013646;28;20076;-58
2022/05/02 02:15:33;;;;;;;13.02;9.60;;;;;;;;;;5018619;28;20040;-58
2022/05/02 02:17:59;;;;;;;14.23;10.27;;;;;;;;;;5008771;28;20041;-58
2022/05/02 02:20:25;;;;;;;14.02;10.02;;;;;;;;;;5012976;28;20087;-58
2022/05/02 02:22:51;;;;;;;13.15;9.98;;;;;;;;;;5016810;28;20096;-58
2022/05/02 02:25:17;;;;;;;14.75;9.88;;;;;;;;;;5011185;28;20042;-58
2022/05/02 02:27:43;;;;;;;12.90;9.13;;;;;;;;;;5026615;28;20041;-58
2022/05/02 02:30:09;;;;;;;11.30;8.80;;;;;;;;;;5025330;28;20116;-58
2022/05/02 02:32:35;;;;;;;13.02;9.07;;;;;;;;;;5024214;28;20053;-58
2022/05/02 02:35:01;;;;;;;14.23;9.57;;;;;;;;;;5014443;28;20181;-58
2022/05/02 02:37:27;;;;;;;13.13;9.30;;;;;;;;;;5019160;28;20044;-58
2022/05/02 02:39:53;;;;;;;14.05;9.35;;;;;;;;;;5010914;28;20100;-58
2022/05/02 02:42:19;;;;;;;15.52;10.05;;;;;;;;;;5021652;28;20080;-58
2022/05/02 02:44:45;;;;;;;15.55;10.55;;;;;;;;;;4998277;28;20180;-58
2022/05/02 02:47:11;;;;;;;15.50;10.93;;;;;;;;;;4993064;28;20495;-59
2022/05/02 02:49:37;;;;;;;17.15;11.25;;;;;;;;;;5014124;28;20033;-58
2022/05/02 02:52:03;;;;;;;14.68;10.02;;;;;;;;;;5029961;28;20131;-58
2022/05/02 02:54:29;;;;;;;18.33;11.70;;;;;;;;;;5010836;28;20045;-58
2022/05/02 02:56:56;;;;;;;17.10;11.43;;;;;;;;;;5017731;28;20037;-58
2022/05/02 02:59:22;;;;;;;13.45;10.55;;;;;;;;;;5013633;28;20053;-58
2022/05/02 03:01:48;;;;;;;13.82;9.77;;;;;;;;;;5020599;28;20120;-58
2022/05/02 03:06:59;;;;;;;15.13;10.55;;;;;;;;;;5000508;28;20037;-58
2022/05/02 03:09:25;;;;;;;13.63;10.25;;;;;;;;;;5016395;28;20121;-58
2022/05/02 03:11:51;;;;;;;15.93;10.18;;;;;;;;;;5015947;28;20478;-58
2022/05/02 03:14:17;;;;;;;14.40;9.68;;;;;;;;;;5021151;28;20038;-58
2022/05/02 03:16:43;;;;;;;13.25;9.18;;;;;;;;;;5016795;28;20065;-58
2022/05/02 03:19:09;;;;;;;15.13;9.52;;;;;;;;;;5027056;28;20095;-58
2022/05/02 03:21:35;;;;;;;13.85;9.32;;;;;;;;;;5024351;28;20048;-58
2022/05/02 03:24:01;;;;;;;15.27;9.77;;;;;;;;;;5000907;28;20412;-57
2022/05/02 03:26:26;;;;;;;14.48;10.52;;;;;;;;;;5008989;28;20053;-58
2022/05/02 03:28:52;;;;;;;12.00;8.88;;;;;;;;;;5016237;28;20037;-58
2022/05/02 03:31:18;;;;;;;12.38;9.65;;;;;;;;;;5020850;28;20069;-58
2022/05/02 03:33:44;;;;;;;12.57;9.38;;;;;;;;;;5007519;28;20053;-58
2022/05/02 03:36:10;;;;;;;10.43;8.15;;;;;;;;;;5031457;28;20549;-58
2022/05/02 03:38:36;;;;;;;12.32;8.70;;;;;;;;;;5015146;28;20293;-58
2022/05/02 03:41:02;;;;;;;16.38;10.07;;;;;;;;;;5001528;28;20034;-58
2022/05/02 03:43:28;;;;;;;12.73;9.85;;;;;;;;;;5024042;28;20045;-58
2022/05/02 03:45:54;;;;;;;15.02;10.23;;;;;;;;;;5014221;28;20089;-58
2022/05/02 03:48:20;;;;;;;15.38;10.30;;;;;;;;;;5018523;28;20045;-58
2022/05/02 03:50:46;;;;;;;15.18;10.75;;;;;;;;;;5008671;28;20503;-58
2022/05/02 03:53:15;;;;;;;15.70;11.82;;;;;;;;;;5013146;28;20084;-58
2022/05/02 03:55:42;;;;;;;16.88;11.20;;;;;;;;;;5016053;28;20046;-58
2022/05/02 03:58:09;;;;;;;15.80;10.82;;;;;;;;;;5018641;28;20037;-58
2022/05/02 04:00:35;;;;;;;10.63;7.68;;;;;;;;;;5005793;28;20133;-58
2022/05/02 04:03:01;;;;;;;13.43;9.73;;;;;;;;;;5010619;28;20035;-58
2022/05/02 04:05:27;;;;;;;11.20;9.02;;;;;;;;;;5012922;28;20068;-58
2022/05/02 04:07:53;;;;;;;11.98;9.48;;;;;;;;;;5022846;28;20049;-58
2022/05/02 04:10:19;;;;;;;14.00;9.27;;;;;;;;;;5013766;28;20046;-58
2022/05/02 04:12:46;;;;;;;13.98;10.43;;;;;;;;;;4996976;28;20081;-58
2022/05/02 04:15:12;;;;;;;15.18;9.20;;;;;;;;;;5005595;28;20052;-58
2022/05/02 04:17:38;;;;;;;12.20;9.43;;;;;;;;;;5015567;28;20495;-58
2022/05/02 04:20:05;;;;;;;12.52;9.55;;;;;;;;;;5014267;28;20046;-58
2022/05/02 04:22:31;;;;;;;11.68;8.50;;;;;;;;;;5011489;28;20038;-58
2022/05/02 04:24:57;;;;;;;16.02;11.90;;;;;;;;;;4999483;28;20064;-58
2022/05/02 04:27:23;;;;;;;13.60;9.90;;;;;;;;;;5013769;28;20045;-59
2022/05/02 04:29:49;;;;;;;13.13;9.85;;;;;;;;;;5014176;28;20076;-59
2022/05/02 04:32:15;;;;;;;15.07;10.80;;;;;;;;;;5012482;28;20404;-59
2022/05/02 04:34:41;;;;;;;14.23;10.05;;;;;;;;;;5022680;28;20046;-59
2022/05/02 04:37:07;;;;;;;14.60;10.48;;;;;;;;;;5014311;28;20062;-59
2022/05/02 04:39:33;;;;;;;13.52;10.02;;;;;;;;;;5012213;28;20100;-59
2022/05/02 04:41:59;;;;;;;15.93;10.43;;;;;;;;;;5022716;28;20034;-59
2022/05/02 04:44:25;;;;;;;15.43;10.48;;;;;;;;;;5011047;28;20034;-59
2022/05/02 04:46:51;;;;;;;15.13;10.52;;;;;;;;;;5020616;28;20436;-59
2022/05/02 04:49:17;;;;;;;16.60;10.63;;;;;;;;;;5013440;28;20073;-59
2022/05/02 04:51:43;;;;;;;18.58;11.57;;;;;;;;;;5030432;28;20033;-59
2022/05/02 04:54:09;;;;;;;16.98;11.80;;;;;;;;;;5015493;28;20065;-59
2022/05/02 04:56:35;;;;;;;18.58;12.05;;;;;;;;;;5005577;28;20045;-59
2022/05/02 04:59:01;;;;;;;20.45;12.20;;;;;;;;;;4994366;28;20439;-59
2022/05/02 05:01:27;;;;;;;20.33;13.43;;;;;;;;;;5001182;28;20050;-59
2022/05/02 05:03:53;;;;;;;18.80;13.48;;;;;;;;;;5012956;28;20031;-59
2022/05/02 05:06:19;;;;;;;16.88;12.60;;;;;;;;;;5022359;28;20057;-59
2022/05/02 05:08:45;;;;;;;22.33;13.73;;;;;;;;;;5016688;28;20033;-59
2022/05/02 05:11:11;;;;;;;19.33;12.65;;;;;;;;;;5008443;28;20042;-59
2022/05/02 05:13:39;;;;;;;19.15;13.75;;;;;;;;;;5012246;28;20044;-59
2022/05/02 05:16:24;;;;;;;20.15;13.40;;;;;;;;;;5010787;28;20053;-59
2022/05/02 05:19:08;;;;;;;21.33;13.27;;;;;;;;;;5021754;28;20038;-59
2022/05/02 05:21:37;;;;;;;22.45;13.63;;;;;;;;;;5004781;28;20042;-59
2022/05/02 05:24:07;;;;;;;19.33;13.80;;;;;;;;;;5021157;28;20511;-59
2022/05/02 05:26:51;;;;;;;21.42;14.48;;;;;;;;;;5014058;28;20034;-59
2022/05/02 05:29:32;;;;;;;19.90;14.27;;;;;;;;;;5021837;28;20033;-59
2022/05/02 05:32:05;;;;;;;23.90;13.68;;;;;;;;;;5012336;28;20462;-59
2022/05/02 05:34:31;;;;;;;20.83;14.75;;;;;;;;;;5031773;28;20547;-59
2022/05/02 05:37:03;;;;;;;25.65;15.55;;;;;;;;;;5028233;28;20116;-59
2022/05/02 05:39:41;;;;;;;22.05;14.20;;;;;;;;;;5015315;28;20709;-59
2022/05/02 05:42:10;;;;;;;21.75;14.75;;;;;;;;;;5016141;28;20042;-59
2022/05/02 05:44:50;;;;;;;23.90;15.32;;;;;;;;;;5008665;28;20405;-59
2022/05/02 05:47:16;;;;;;;26.63;16.27;;;;;;;;;;5008091;28;20040;-59
2022/05/02 05:50:03;;;;;;;24.83;16.08;;;;;;;;;;5020972;28;20569;-59
2022/05/02 05:52:33;;;;;;;21.02;14.88;;;;;;;;;;5012126;28;20539;-59
2022/05/02 05:54:59;;;;;;;25.00;15.75;;;;;;;;;;5016751;28;20400;-59
2022/05/02 05:57:33;;;;;;;23.52;15.95;;;;;;;;;;5015367;28;20034;-59
2022/05/02 06:00:05;;;;;;;21.60;14.93;;;;;;;;;;5023021;28;20045;-59
2022/05/02 06:02:48;;;;;;;23.30;15.20;;;;;;;;;;4993786;28;20041;-59
2022/05/02 06:05:15;;;;;;;23.55;15.63;;;;;;;;;;5019278;28;20042;-59
2022/05/02 06:07:41;;;;;;;21.98;15.75;;;;;;;;;;5010142;28;20251;-59
2022/05/02 06:10:09;;;;;;;23.55;14.93;;;;;;;;;;5019626;28;20046;-59
2022/05/02 06:12:36;;;;;;;21.88;13.75;;;;;;;;;;5010402;28;20037;-59
2022/05/02 06:20:39;;;;;;;22.92;14.10;;;;;;;;;;5005095;28;20045;-59
2022/05/02 06:23:07;;;;;;;19.42;14.32;;;;;;;;;;5017408;28;20407;-59
2022/05/02 06:25:33;;;;;;;24.08;14.05;;;;;;;;;;5016259;28;20502;-59
2022/05/02 06:28:02;;;;;;;20.50;14.70;;;;;;;;;;5009941;28;20165;-59
2022/05/02 06:30:30;;;;;;;22.92;14.35;;;;;;;;;;5005304;28;20092;-59
2022/05/02 06:32:58;;;;;;;22.20;14.82;;;;;;;;;;5008888;28;20404;-59
2022/05/02 06:35:28;;;;;;;20.35;14.52;;;;;;;;;;5008320;28;20049;-59
2022/05/02 06:38:01;;;;;;;21.45;14.70;;;;;;;;;;4998456;28;20113;-59
2022/05/02 06:40:32;;;;;;;21.77;14.40;;;;;;;;;;5004327;28;20041;-59
2022/05/02 06:43:04;;;;;;;24.15;14.95;;;;;;;;;;5007482;28;20413;-59
2022/05/02 06:45:54;;;;;;;21.77;14.07;;;;;;;;;;5000338;28;20452;-59
2022/05/02 06:48:28;;;;;;;22.25;14.13;;;;;;;;;;5002778;28;20103;-59
2022/05/02 06:50:55;;;;;;;21.40;14.52;;;;;;;;;;5013295;28;20251;-59
2022/05/02 06:53:28;;;;;;;19.42;13.10;;;;;;;;;;5009106;28;20049;-59
2022/05/02 06:55:56;;;;;;;18.73;12.73;;;;;;;;;;5006739;28;20048;-59
2022/05/02 06:58:34;;;;;;;23.55;12.93;;;;;;;;;;5021372;28;20045;-59
2022/05/02 07:01:09;;;;;;;20.13;13.88;;;;;;;;;;5014558;28;20050;-59
2022/05/02 07:03:54;;;;;;;20.00;13.57;;;;;;;;;;5016979;28;20045;-59
2022/05/02 07:06:32;;;;;;;18.98;12.15;;;;;;;;;;5021741;28;20508;-59
2022/05/02 07:09:03;;;;;;;22.13;13.52;;;;;;;;;;5008191;28;20036;-59
2022/05/02 07:11:37;;;;;;;18.02;12.02;;;;;;;;;;4999176;28;20042;-59
2022/05/02 07:14:07;;;;;;;16.65;11.27;;;;;;;;;;5004059;28;20315;-59
2022/05/02 07:16:37;;;;;;;16.02;11.82;;;;;;;;;;5008723;28;20041;-59
2022/05/02 07:19:25;;;;;;;16.90;12.18;;;;;;;;;;5013338;28;20052;-59
2022/05/02 07:22:03;;;;;;;16.83;12.13;;;;;;;;;;5015426;28;20038;-59
2022/05/02 07:24:44;;;;;;;16.90;11.88;;;;;;;;;;5005779;28;20116;-59
2022/05/02 07:27:27;;;;;;;18.55;11.15;;;;;;;;;;5005909;28;20030;-59
2022/05/02 07:29:57;;;;;;;17.17;11.43;;;;;;;;;;5005818;28;20488;-59
2022/05/02 07:32:24;;;;;;;20.20;11.85;;;;;;;;;;5001288;28;20037;-59
2022/05/02 07:34:52;;;;;;;16.80;10.98;;;;;;;;;;5002506;28;20053;-59
2022/05/02 07:37:20;;;;;;;14.52;10.88;;;;;;;;;;5050634;23;20044;-61
2022/05/02 07:39:48;;;;;;;13.63;10.10;;;;;;;;;;5044726;28;20094;-61
2022/05/02 07:42:15;;;;;;;14.35;10.40;;;;;;;;;;5048592;28;20128;-61
2022/05/02 07:44:43;;;;;;;18.08;10.48;;;;;;;;;;5045936;28;20037;-61
2022/05/02 07:47:11;;;;;;;17.13;9.73;;;;;;;;;;5042551;28;20030;-60
2022/05/02 07:49:39;;;;;;;16.45;10.15;;;;;;;;;;5025141;28;20044;-60
2022/05/02 07:52:05;;;;;;;15.07;9.82;;;;;;;;;;5031286;28;20037;-60
2022/05/02 07:54:41;;;;;;;14.60;10.38;;;;;;;;;;5014438;28;20618;-60
2022/05/02 07:57:07;;;;;;;14.60;9.68;;;;;;;;;;5027838;28;20096;-60
2022/05/02 07:59:37;;;;;;;13.95;9.63;;;;;;;;;;5030950;28;20045;-60
2022/05/02 08:02:04;;;;;;;13.48;9.43;;;;;;;;;;5031719;28;20196;-60
2022/05/02 08:04:31;;;;;;;16.13;10.30;;;;;;;;;;5045422;28;20112;-60
2022/05/02 08:07:11;;;;;;;15.93;9.55;;;;;;;;;;5034867;28;20037;-60
2022/05/02 08:09:37;;;;;;;12.77;9.73;;;;;;;;;;5029582;28;20033;-60
2022/05/02 08:12:16;;;;;;;14.52;9.18;;;;;;;;;;5031500;28;20450;-60
2022/05/02 08:15:01;;;;;;;11.80;9.30;;;;;;;;;;5017708;28;20492;-60
2022/05/02 08:17:47;;;;;;;13.00;8.65;;;;;;;;;;5025957;28;20037;-60
2022/05/02 08:20:15;;;;;;;13.25;9.15;;;;;;;;;;5032504;28;20049;-60
2022/05/02 08:28:27;;;;;;;11.30;8.95;;;;;;;;;;5034538;28;20041;-60
2022/05/02 08:31:15;;;;;;;13.18;8.70;;;;;;;;;;5034252;28;20068;-60
2022/05/02 08:33:47;;;;;;;13.40;9.23;;;;;;;;;;5014526;28;20511;-60
2022/05/02 08:36:25;;;;;;;15.90;9.38;;;;;;;;;;5014132;28;20050;-60
2022/05/02 08:38:55;;;;;;;13.15;9.50;;;;;;;;;;5033223;28;20048;-60
2022/05/02 08:41:39;;;;;;;15.00;9.18;;;;;;;;;;5046013;28;20094;-60
2022/05/02 08:44:24;;;;;;;14.00;8.82;;;;;;;;;;5040019;28;20399;-60
2022/05/02 08:46:50;;;;;;;14.13;9.20;;;;;;;;;;5044247;28;20200;-60
2022/05/02 08:49:38;;;;;;;12.20;8.32;;;;;;;;;;5049442;28;20032;-59
2022/05/02 08:52:19;;;;;;;12.80;8.88;;;;;;;;;;5050688;28;20045;-60
2022/05/02 08:54:49;;;;;;;9.57;8.23;;;;;;;;;;5053522;28;20068;-61
2022/05/02 08:57:23;;;;;;;14.43;9.02;;;;;;;;;;5051194;28;20053;-60
2022/05/02 08:59:58;;;;;;;10.90;8.70;;;;;;;;;;5030044;28;20040;-60
2022/05/02 09:02:33;;;;;;;11.98;8.60;;;;;;;;;;5052801;28;20701;-60
2022/05/02 09:05:00;;;;;;;12.10;8.25;;;;;;;;;;5053863;28;20033;-60
2022/05/02 09:07:29;;;;;;;9.90;7.68;;;;;;;;;;5043390;28;20033;-60
2022/05/02 09:10:10;;;;;;;10.35;6.35;;;;;;;;;;5045601;28;20029;-60
2022/05/02 09:12:45;;;;;;;9.07;6.72;;;;;;;;;;5048359;28;20112;-60
2022/05/02 09:15:14;;;;;;;12.80;7.55;;;;;;;;;;5045369;28;20059;-60
2022/05/02 09:17:59;;;;;;;10.23;7.35;;;;;;;;;;5043789;28;20029;-60
2022/05/02 09:20:25;;;;;;;7.95;6.40;;;;;;;;;;5043507;28;20060;-60
2022/05/02 09:23:03;;;;;;;12.13;7.72;;;;;;;;;;5044797;28;20494;-60
2022/05/02 09:25:50;;;;;;;12.27;7.60;;;;;;;;;;5032256;28;20033;-60
2022/05/02 09:28:22;;;;;;;13.07;7.63;;;;;;;;;;5034995;28;20415;-60
2022/05/02 09:31:09;;;;;;;10.52;7.50;;;;;;;;;;5047936;28;20499;-60
2022/05/02 09:33:49;;;;;;;9.32;7.35;;;;;;;;;;5053275;28;20091;-60
2022/05/02 09:36:21;;;;;;;8.88;6.88;;;;;;;;;;5052700;28;20604;-60
2022/05/02 09:38:50;;;;;;;10.48;6.82;;;;;;;;;;5037910;28;20046;-60
2022/05/02 09:41:27;;;;;;;9.27;6.95;;;;;;;;;;5033981;28;20057;-60
2022/05/02 09:49:54;;;;;;;10.13;7.70;;;;;;;;;;5034193;28;20033;-60
2022/05/02 09:52:29;;;;;;;9.55;8.00;;;;;;;;;;5032177;28;20041;-60
2022/05/02 09:58:29;;;;;;;12.60;7.78;;;;;;;;;;5030567;28;20507;-60
2022/05/02 10:01:11;;;;;;;14.52;8.70;;;;;;;;;;5043632;28;20126;-60
2022/05/02 10:03:38;;;;;;;13.23;8.50;;;;;;;;;;5052124;28;20041;-60
2022/05/02 10:06:08;;;;;;;11.68;8.45;;;;;;;;;;5052845;28;20041;-60
2022/05/02 10:08:53;;;;;;;11.77;8.57;;;;;;;;;;5040839;28;20041;-60
2022/05/02 10:11:37;;;;;;;12.25;8.30;;;;;;;;;;5024099;28;20049;-60
2022/05/02 10:14:24;;;;;;;11.10;8.05;;;;;;;;;;5028641;28;20038;-60
2022/05/02 10:16:49;;;;;;;12.52;8.15;;;;;;;;;;5030463;28;20041;-60
2022/05/02 10:19:36;;;;;;;11.68;8.50;;;;;;;;;;5040325;28;20496;-60
2022/05/02 10:22:05;;;;;;;15.75;9.82;;;;;;;;;;5052319;28;20048;-60
2022/05/02 10:24:43;;;;;;;13.15;8.52;;;;;;;;;;5052233;28;20037;-60
2022/05/02 10:27:23;;;;;;;12.68;9.18;;;;;;;;;;5038699;28;20033;-60
2022/05/02 10:30:00;;;;;;;11.82;8.88;;;;;;;;;;5034372;28;20052;-60
2022/05/02 10:32:32;;;;;;;13.25;9.32;;;;;;;;;;5043257;28;20402;-60
2022/05/02 10:35:02;;;;;;;15.45;9.77;;;;;;;;;;5052086;28;20037;-60
2022/05/02 10:37:31;;;;;;;14.10;9.10;;;;;;;;;;5045605;28;20175;-60
2022/05/02 10:40:06;;;;;;;11.82;9.38;;;;;;;;;;5030402;28;20065;-60
2022/05/02 10:42:34;;;;;;;14.82;8.70;;;;;;;;;;5036560;28;20041;-60
2022/05/02 10:45:07;;;;;;;12.90;9.82;;;;;;;;;;5051656;28;20103;-60
2022/05/02 10:47:52;;;;;;;12.05;9.32;;;;;;;;;;5034785;28;20069;-60
2022/05/02 10:50:19;;;;;;;13.02;9.68;;;;;;;;;;5043402;28;20037;-60
2022/05/02 10:52:49;;;;;;;17.85;9.13;;;;;;;;;;5051855;28;20037;-60
2022/05/02 10:55:31;;;;;;;11.77;8.45;;;;;;;;;;5041331;28;20047;-60
2022/05/02 10:58:01;;;;;;;15.07;8.73;;;;;;;;;;5042586;28;20045;-60
2022/05/02 11:00:28;;;;;;;10.38;9.02;;;;;;;;;;5035322;28;20044;-60
2022/05/02 11:03:13;;;;;;;14.02;9.00;;;;;;;;;;5051660;28;20087;-60
2022/05/02 11:05:45;;;;;;;13.57;8.63;;;;;;;;;;5051402;28;20575;-60
2022/05/02 11:08:11;;;;;;;15.07;9.90;;;;;;;;;;5037403;28;20033;-60
2022/05/02 11:10:47;;;;;;;14.93;8.82;;;;;;;;;;5030854;28;20056;-60
2022/05/02 11:13:32;;;;;;;13.52;9.15;;;;;;;;;;5018455;28;20064;-60
2022/05/02 11:15:58;;;;;;;13.35;8.90;;;;;;;;;;5012797;28;20573;-60
2022/05/02 11:21:35;;;;;;;13.38;9.23;;;;;;;;;;5033650;28;20053;-61
2022/05/02 11:24:27;;;;;;;13.57;9.50;;;;;;;;;;5029437;28;20033;-60
2022/05/02 11:27:05;;;;;;;15.30;9.15;;;;;;;;;;5040422;28;20060;-61
2022/05/02 11:29:34;;;;;;;13.13;8.77;;;;;;;;;;5031782;28;20479;-60
2022/05/02 11:32:04;;;;;;;10.52;8.27;;;;;;;;;;5031276;28;20084;-60
2022/05/02 11:34:50;;;;;;;14.73;8.30;;;;;;;;;;5031280;28;20450;-60
2022/05/02 11:37:24;;;;;;;10.73;8.43;;;;;;;;;;5031671;28;20939;-60
2022/05/02 11:39:50;;;;;;;12.90;8.70;;;;;;;;;;5031353;28;20183;-60
2022/05/02 11:42:18;;;;;;;12.98;8.80;;;;;;;;;;5049491;28;20558;-60
2022/05/02 11:44:51;;;;;;;12.25;8.55;;;;;;;;;;5037108;28;20682;-60
2022/05/02 11:47:22;;;;;;;13.02;9.27;;;;;;;;;;5040349;28;20045;-60
2022/05/02 11:49:48;;;;;;;;;;;;;;;;;;5042572;28;20040;-61
2022/05/02 11:52:25;;;;;;;12.60;8.05;;;;;;;;;;5043402;28;19917;-60
2022/05/02 11:54:56;;;;;;;10.95;7.95;;;;;;;;;;5042874;28;20120;-60
2022/05/02 11:57:25;;;;;;;;;;;;;;;;;;5044831;28;20045;-60
2022/05/02 11:59:55;;;;;;;12.32;8.10;;;;;;;;;;5033978;28;19917;-60
2022/05/02 12:02:45;;;;;;;11.63;8.10;;;;;;;;;;5050028;28;20033;-60
2022/05/02 12:05:20;;;;;;;11.35;8.10;;;;;;;;;;5050827;28;20045;-60
2022/05/02 12:07:56;;;;;;;11.38;8.55;;;;;;;;;;5034376;28;20037;-60
2022/05/02 12:10:31;;;;;;;10.07;7.10;;;;;;;;;;5038879;28;20043;-60
2022/05/02 12:12:57;;;;;;;9.60;7.20;;;;;;;;;;5031213;28;20048;-60
2022/05/02 12:15:24;;;;;;;12.45;7.03;;;;;;;;;;5038148;28;20517;-61
2022/05/02 12:17:50;;;;;;;10.05;7.75;;;;;;;;;;5031995;28;20038;-60
2022/05/02 12:20:37;;;;;;;10.57;7.28;;;;;;;;;;5036811;28;20048;-60
2022/05/02 12:23:07;;;;;;;8.23;6.55;;;;;;;;;;5042285;28;20037;-60
2022/05/02 12:25:34;;;;;;;9.48;7.32;;;;;;;;;;5034500;28;20033;-60
2022/05/02 12:28:03;;;;;;;8.98;6.47;;;;;;;;;;5026674;28;20038;-60
2022/05/02 12:30:29;;;;;;;8.55;6.55;;;;;;;;;;5034443;28;20492;-60
2022/05/02 12:33:00;;;;;;;8.80;6.18;;;;;;;;;;5016973;28;20092;-60
2022/05/02 12:35:34;;;;;;;7.80;6.03;;;;;;;;;;5041065;28;20113;-60
2022/05/02 12:38:10;;;;;;;8.65;6.25;;;;;;;;;;5034751;28;20048;-61
2022/05/02 12:40:36;;;;;;;8.68;6.55;;;;;;;;;;5033088;28;20558;-60
2022/05/02 12:43:09;;;;;;;10.68;5.97;;;;;;;;;;5054462;28;20037;-60
2022/05/02 12:45:46;;;;;;;9.18;6.38;;;;;;;;;;5039741;28;20116;-61
2022/05/02 12:48:29;;;;;;;8.70;6.10;;;;;;;;;;5030769;28;20045;-60
2022/05/02 12:50:58;;;;;;;8.10;6.05;;;;;;;;;;5037929;28;20045;-60
2022/05/02 12:56:15;;;;;;;8.40;6.60;;;;;;;;;;5014650;28;20052;-60
2022/05/02 13:01:30;;;;;;;8.30;5.53;;;;;;;;;;5053638;28;20041;-60
2022/05/02 13:04:04;;;;;;;8.07;6.18;;;;;;;;;;5037097;28;20038;-60
2022/05/02 13:06:31;;;;;;;9.05;5.78;;;;;;;;;;5029523;28;20105;-60
2022/05/02 13:09:14;;;;;;;10.15;5.90;;;;;;;;;;5035721;28;20043;-60
2022/05/02 13:11:41;;;;;;;7.70;5.00;;;;;;;;;;5040377;28;20056;-60
2022/05/02 13:14:09;;;;;;;7.38;6.03;;;;;;;;;;5053818;28;20044;-60
2022/05/02 13:16:41;;;;;;;8.35;5.28;;;;;;;;;;5053353;28;20098;-60
2022/05/02 13:19:07;;;;;;;8.65;6.13;;;;;;;;;;5041993;28;20495;-60
2022/05/02 13:21:33;;;;;;;10.80;6.35;;;;;;;;;;5037245;28;20038;-60
2022/05/02 13:24:05;;;;;;;8.32;6.03;;;;;;;;;;5049767;28;20388;-60
2022/05/02 13:26:34;;;;;;;9.98;5.90;;;;;;;;;;5048516;28;20052;-60
2022/05/02 13:29:08;;;;;;;9.48;5.28;;;;;;;;;;5044563;28;20108;-60
2022/05/02 13:31:44;;;;;;;7.25;4.72;;;;;;;;;;5053074;28;20497;-60
2022/05/02 13:34:20;;;;;;;7.45;5.07;;;;;;;;;;5042914;28;20735;-60
2022/05/02 13:36:48;;;;;;;7.97;4.85;;;;;;;;;;5060844;22;20041;-60
2022/05/02 13:39:22;;;;;;;7.35;5.20;;;;;;;;;;5052409;28;20474;-60
2022/05/02 13:42:02;;;;;;;6.88;4.22;;;;;;;;;;5042198;28;20052;-60
2022/05/02 13:44:29;;;;;;;11.05;5.22;;;;;;;;;;5033459;28;20076;-60
2022/05/02 13:47:02;;;;;;;6.25;4.75;;;;;;;;;;5032559;28;20091;-60
2022/05/02 13:49:28;;;;;;;6.82;4.55;;;;;;;;;;5050008;28;20394;-60
2022/05/02 13:52:00;;;;;;;6.05;4.13;;;;;;;;;;5049850;28;20120;-60
2022/05/02 13:54:34;;;;;;;6.72;4.80;;;;;;;;;;5052886;28;20090;-60
2022/05/02 13:57:14;;;;;;;5.82;4.35;;;;;;;;;;5038908;28;20372;-60
2022/05/02 13:59:53;;;;;;;6.65;4.03;;;;;;;;;;5046791;28;20037;-60
2022/05/02 14:02:19;;;;;;;7.68;4.60;;;;;;;;;;5050049;28;20504;-60
2022/05/02 14:04:53;;;;;;;8.60;4.63;;;;;;;;;;5050883;28;20041;-61
2022/05/02 14:07:19;;;;;;;7.32;4.70;;;;;;;;;;5049979;28;20072;-60
2022/05/02 14:09:50;;;;;;;8.18;4.78;;;;;;;;;;5050086;28;20162;-60
2022/05/02 14:12:22;;;;;;;5.53;4.40;;;;;;;;;;5049859;28;20067;-60
2022/05/02 14:15:07;;;;;;;6.07;4.38;;;;;;;;;;5046417;28;20087;-60
2022/05/02 14:17:45;;;;;;;8.43;4.07;;;;;;;;;;5040420;28;20078;-60
2022/05/02 14:20:23;;;;;;;9.15;5.30;;;;;;;;;;5047274;28;20135;-60
2022/05/02 14:23:09;;;;;;;7.47;4.97;;;;;;;;;;5027658;28;20072;-60
2022/05/02 14:25:35;;;;;;;5.90;4.47;;;;;;;;;;5037615;28;20089;-60
2022/05/02 14:28:07;;;;;;;4.22;3.80;;;;;;;;;;5051182;28;20083;-60
2022/05/02 14:30:37;;;;;;;5.80;4.55;;;;;;;;;;5043204;28;20037;-60
2022/05/02 14:33:03;;;;;;;7.15;4.80;;;;;;;;;;5044273;28;20059;-60
2022/05/02 14:35:35;;;;;;;6.03;4.07;;;;;;;;;;5051499;28;20032;-60
2022/05/02 14:38:01;;;;;;;5.60;4.15;;;;;;;;;;5048967;28;20399;-60
2022/05/02 14:40:27;;;;;;;8.02;4.45;;;;;;;;;;5049697;28;20033;-60
2022/05/02 14:42:53;;;;;;;9.32;4.65;;;;;;;;;;5051808;28;20041;-60
2022/05/02 14:45:19;;;;;;;5.80;4.22;;;;;;;;;;5047603;28;20033;-60
2022/05/02 14:47:49;;;;;;;7.47;4.20;;;;;;;;;;5043546;28;20083;-60
2022/05/02 14:50:16;;;;;;;6.53;4.50;;;;;;;;;;5033340;28;20040;-60
2022/05/02 14:52:43;;;;;;;6.18;4.85;;;;;;;;;;5050937;28;20041;-60
2022/05/02 14:55:09;;;;;;;5.72;4.47;;;;;;;;;;5020890;28;20537;-60
2022/05/02 14:57:36;;;;;;;6.25;4.47;;;;;;;;;;5046658;28;20037;-59
2022/05/02 15:00:11;;;;;;;7.72;4.55;;;;;;;;;;5043222;28;20122;-60
2022/05/02 15:02:38;;;;;;;6.47;5.07;;;;;;;;;;5046854;28;20708;-60
2022/05/02 15:05:07;;;;;;;8.00;4.97;;;;;;;;;;5047457;28;20041;-60
2022/05/02 15:07:56;;;;;;;8.20;4.88;;;;;;;;;;5048997;28;20048;-60
2022/05/02 15:10:22;;;;;;;7.80;5.50;;;;;;;;;;5024621;28;20053;-60
2022/05/02 15:13:14;;;;;;;6.97;5.43;;;;;;;;;;5044068;28;20047;-59
2022/05/02 15:15:51;;;;;;;8.93;4.90;;;;;;;;;;5044661;28;20044;-60
2022/05/02 15:18:26;;;;;;;7.50;4.88;;;;;;;;;;5044336;28;20049;-60
2022/05/02 15:21:01;;;;;;;7.50;4.88;;;;;;;;;;5048464;28;20053;-60